sensor_id;sensor_type;location;lat;lon;timestamp;P1;durP1;ratioP1;P2;durP2;ratioP2
5752;SDS011;2901;42.140;24.760;2024-03-29T00:01:47;13.43;;;4.30;;
5752;SDS011;2901;42.140;24.760;2024-03-29T00:04:12;9.32;;;3.10;;
5752;SDS011;2901;42.140;24.760;2024-03-29T00:06:38;13.55;;;4.32;;
5752;SDS011;2901;42.140;24.760;2024-03-29T00:09:03;17.52;;;4.85;;
5752;SDS011;2901;42.140;24.760;2024-03-29T00:11:28;12.63;;;3.75;;
5752;SDS011;2901;42.140;24.760;2024-03-29T00:13:56;21.08;;;3.53;;
5752;SDS011;2901;42.140;24.760;2024-03-29T00:16:21;11.10;;;3.88;;
5752;SDS011;2901;42.140;24.760;2024-03-29T00:18:50;10.77;;;3.88;;
5752;SDS011;2901;42.140;24.760;2024-03-29T00:21:18;16.35;;;4.10;;
5752;SDS011;2901;42.140;24.760;2024-03-29T00:23:44;9.07;;;3.53;;
5752;SDS011;2901;42.140;24.760;2024-03-29T00:26:10;12.10;;;3.45;;
5752;SDS011;2901;42.140;24.760;2024-03-29T00:28:36;6.82;;;3.65;;
5752;SDS011;2901;42.140;24.760;2024-03-29T00:31:02;20.02;;;3.95;;
5752;SDS011;2901;42.140;24.760;2024-03-29T00:33:27;9.35;;;3.20;;
5752;SDS011;2901;42.140;24.760;2024-03-29T00:35:53;12.63;;;3.67;;
5752;SDS011;2901;42.140;24.760;2024-03-29T00:38:18;14.57;;;4.13;;
5752;SDS011;2901;42.140;24.760;2024-03-29T00:40:43;19.02;;;3.58;;
5752;SDS011;2901;42.140;24.760;2024-03-29T00:43:09;13.27;;;3.25;;
5752;SDS011;2901;42.140;24.760;2024-03-29T00:45:35;9.98;;;3.83;;
5752;SDS011;2901;42.140;24.760;2024-03-29T00:48:00;10.52;;;3.42;;
5752;SDS011;2901;42.140;24.760;2024-03-29T00:50:25;6.93;;;3.60;;
5752;SDS011;2901;42.140;24.760;2024-03-29T00:52:51;9.77;;;2.63;;
5752;SDS011;2901;42.140;24.760;2024-03-29T00:55:16;17.33;;;3.30;;
5752;SDS011;2901;42.140;24.760;2024-03-29T00:57:42;8.68;;;2.25;;
5752;SDS011;2901;42.140;24.760;2024-03-29T01:00:07;6.50;;;3.08;;
5752;SDS011;2901;42.140;24.760;2024-03-29T01:02:35;8.15;;;2.42;;
5752;SDS011;2901;42.140;24.760;2024-03-29T01:05:01;7.75;;;2.53;;
5752;SDS011;2901;42.140;24.760;2024-03-29T01:07:26;11.63;;;3.55;;
5752;SDS011;2901;42.140;24.760;2024-03-29T01:09:51;7.78;;;2.80;;
5752;SDS011;2901;42.140;24.760;2024-03-29T01:12:17;11.18;;;3.40;;
5752;SDS011;2901;42.140;24.760;2024-03-29T01:14:44;17.20;;;2.83;;
5752;SDS011;2901;42.140;24.760;2024-03-29T01:17:09;8.43;;;3.17;;
5752;SDS011;2901;42.140;24.760;2024-03-29T01:19:34;9.75;;;3.20;;
5752;SDS011;2901;42.140;24.760;2024-03-29T01:22:00;15.80;;;3.10;;
5752;SDS011;2901;42.140;24.760;2024-03-29T01:24:25;14.38;;;2.67;;
5752;SDS011;2901;42.140;24.760;2024-03-29T01:26:50;22.40;;;3.97;;
5752;SDS011;2901;42.140;24.760;2024-03-29T01:29:16;16.88;;;2.95;;
5752;SDS011;2901;42.140;24.760;2024-03-29T01:31:42;11.82;;;3.10;;
5752;SDS011;2901;42.140;24.760;2024-03-29T01:34:07;7.40;;;2.70;;
5752;SDS011;2901;42.140;24.760;2024-03-29T01:36:32;12.00;;;3.08;;
5752;SDS011;2901;42.140;24.760;2024-03-29T01:38:58;14.15;;;2.15;;
5752;SDS011;2901;42.140;24.760;2024-03-29T01:41:25;7.13;;;2.13;;
5752;SDS011;2901;42.140;24.760;2024-03-29T01:43:52;3.67;;;2.10;;
5752;SDS011;2901;42.140;24.760;2024-03-29T01:46:18;15.40;;;2.47;;
5752;SDS011;2901;42.140;24.760;2024-03-29T01:48:45;15.35;;;2.47;;
5752;SDS011;2901;42.140;24.760;2024-03-29T01:51:11;10.73;;;2.95;;
5752;SDS011;2901;42.140;24.760;2024-03-29T01:53:39;4.68;;;2.05;;
5752;SDS011;2901;42.140;24.760;2024-03-29T01:56:05;4.07;;;2.80;;
5752;SDS011;2901;42.140;24.760;2024-03-29T01:58:31;9.00;;;2.78;;
5752;SDS011;2901;42.140;24.760;2024-03-29T02:00:58;8.25;;;2.50;;
5752;SDS011;2901;42.140;24.760;2024-03-29T02:03:25;7.32;;;2.50;;
5752;SDS011;2901;42.140;24.760;2024-03-29T02:05:51;6.65;;;2.40;;
5752;SDS011;2901;42.140;24.760;2024-03-29T02:08:17;9.85;;;2.28;;
5752;SDS011;2901;42.140;24.760;2024-03-29T02:10:44;9.48;;;2.20;;
5752;SDS011;2901;42.140;24.760;2024-03-29T02:13:12;9.30;;;2.75;;
5752;SDS011;2901;42.140;24.760;2024-03-29T02:15:39;11.50;;;2.55;;
5752;SDS011;2901;42.140;24.760;2024-03-29T02:18:05;5.75;;;2.55;;
5752;SDS011;2901;42.140;24.760;2024-03-29T02:20:31;5.32;;;2.33;;
5752;SDS011;2901;42.140;24.760;2024-03-29T02:23:00;11.32;;;2.92;;
5752;SDS011;2901;42.140;24.760;2024-03-29T02:25:41;9.70;;;2.90;;
5752;SDS011;2901;42.140;24.760;2024-03-29T02:28:06;11.35;;;2.95;;
5752;SDS011;2901;42.140;24.760;2024-03-29T02:30:32;11.52;;;2.83;;
5752;SDS011;2901;42.140;24.760;2024-03-29T02:32:58;10.48;;;3.10;;
5752;SDS011;2901;42.140;24.760;2024-03-29T02:35:25;10.63;;;3.72;;
5752;SDS011;2901;42.140;24.760;2024-03-29T02:37:50;12.15;;;2.40;;
5752;SDS011;2901;42.140;24.760;2024-03-29T02:40:16;7.95;;;2.45;;
5752;SDS011;2901;42.140;24.760;2024-03-29T02:42:42;7.60;;;2.22;;
5752;SDS011;2901;42.140;24.760;2024-03-29T02:45:07;11.68;;;2.40;;
5752;SDS011;2901;42.140;24.760;2024-03-29T02:47:33;7.82;;;1.90;;
5752;SDS011;2901;42.140;24.760;2024-03-29T02:49:58;4.88;;;2.78;;
5752;SDS011;2901;42.140;24.760;2024-03-29T02:52:24;4.70;;;2.20;;
5752;SDS011;2901;42.140;24.760;2024-03-29T02:54:49;4.18;;;2.00;;
5752;SDS011;2901;42.140;24.760;2024-03-29T02:57:14;7.95;;;2.33;;
5752;SDS011;2901;42.140;24.760;2024-03-29T02:59:40;6.50;;;1.88;;
5752;SDS011;2901;42.140;24.760;2024-03-29T03:02:06;8.70;;;2.08;;
5752;SDS011;2901;42.140;24.760;2024-03-29T03:04:31;4.63;;;2.10;;
5752;SDS011;2901;42.140;24.760;2024-03-29T03:06:57;5.38;;;1.80;;
5752;SDS011;2901;42.140;24.760;2024-03-29T03:09:42;5.90;;;2.28;;
5752;SDS011;2901;42.140;24.760;2024-03-29T03:12:26;5.00;;;1.83;;
5752;SDS011;2901;42.140;24.760;2024-03-29T03:14:51;5.13;;;1.98;;
5752;SDS011;2901;42.140;24.760;2024-03-29T03:17:17;9.15;;;2.70;;
5752;SDS011;2901;42.140;24.760;2024-03-29T03:19:43;21.48;;;2.28;;
5752;SDS011;2901;42.140;24.760;2024-03-29T03:22:08;7.32;;;2.20;;
5752;SDS011;2901;42.140;24.760;2024-03-29T03:24:33;8.30;;;2.35;;
5752;SDS011;2901;42.140;24.760;2024-03-29T03:26:59;6.45;;;2.03;;
5752;SDS011;2901;42.140;24.760;2024-03-29T03:29:24;3.83;;;1.73;;
5752;SDS011;2901;42.140;24.760;2024-03-29T03:31:49;4.03;;;1.50;;
5752;SDS011;2901;42.140;24.760;2024-03-29T03:34:15;2.72;;;1.63;;
5752;SDS011;2901;42.140;24.760;2024-03-29T03:36:40;4.68;;;1.52;;
5752;SDS011;2901;42.140;24.760;2024-03-29T03:39:06;4.15;;;1.90;;
5752;SDS011;2901;42.140;24.760;2024-03-29T03:41:31;3.13;;;1.98;;
5752;SDS011;2901;42.140;24.760;2024-03-29T03:43:56;6.32;;;1.60;;
5752;SDS011;2901;42.140;24.760;2024-03-29T03:46:22;2.80;;;1.40;;
5752;SDS011;2901;42.140;24.760;2024-03-29T03:48:47;1.90;;;1.63;;
5752;SDS011;2901;42.140;24.760;2024-03-29T03:51:12;6.05;;;1.73;;
5752;SDS011;2901;42.140;24.760;2024-03-29T03:53:38;2.60;;;1.40;;
5752;SDS011;2901;42.140;24.760;2024-03-29T03:56:03;3.10;;;1.30;;
5752;SDS011;2901;42.140;24.760;2024-03-29T03:58:29;3.15;;;1.50;;
5752;SDS011;2901;42.140;24.760;2024-03-29T04:00:54;9.90;;;1.80;;
5752;SDS011;2901;42.140;24.760;2024-03-29T04:03:19;3.75;;;1.90;;
5752;SDS011;2901;42.140;24.760;2024-03-29T04:05:45;4.20;;;1.50;;
5752;SDS011;2901;42.140;24.760;2024-03-29T04:08:10;3.33;;;1.70;;
5752;SDS011;2901;42.140;24.760;2024-03-29T04:10:38;4.07;;;1.35;;
5752;SDS011;2901;42.140;24.760;2024-03-29T04:13:04;3.80;;;1.20;;
5752;SDS011;2901;42.140;24.760;2024-03-29T04:15:30;5.55;;;1.23;;
5752;SDS011;2901;42.140;24.760;2024-03-29T04:17:57;4.88;;;1.40;;
5752;SDS011;2901;42.140;24.760;2024-03-29T04:20:22;5.88;;;1.70;;
5752;SDS011;2901;42.140;24.760;2024-03-29T04:22:48;4.28;;;1.42;;
5752;SDS011;2901;42.140;24.760;2024-03-29T04:25:14;6.13;;;1.50;;
5752;SDS011;2901;42.140;24.760;2024-03-29T04:27:39;8.25;;;1.92;;
5752;SDS011;2901;42.140;24.760;2024-03-29T04:30:06;3.90;;;1.65;;
5752;SDS011;2901;42.140;24.760;2024-03-29T04:32:31;6.03;;;1.38;;
5752;SDS011;2901;42.140;24.760;2024-03-29T04:34:57;2.40;;;1.15;;
5752;SDS011;2901;42.140;24.760;2024-03-29T04:37:22;4.28;;;1.75;;
5752;SDS011;2901;42.140;24.760;2024-03-29T04:39:48;5.95;;;1.40;;
5752;SDS011;2901;42.140;24.760;2024-03-29T04:42:13;4.68;;;1.65;;
5752;SDS011;2901;42.140;24.760;2024-03-29T04:44:39;5.97;;;1.63;;
5752;SDS011;2901;42.140;24.760;2024-03-29T04:47:05;3.90;;;1.15;;
5752;SDS011;2901;42.140;24.760;2024-03-29T04:49:31;4.28;;;1.20;;
5752;SDS011;2901;42.140;24.760;2024-03-29T04:52:01;5.15;;;1.73;;
5752;SDS011;2901;42.140;24.760;2024-03-29T04:54:28;2.42;;;0.98;;
5752;SDS011;2901;42.140;24.760;2024-03-29T04:56:53;2.20;;;1.42;;
5752;SDS011;2901;42.140;24.760;2024-03-29T04:59:19;1.38;;;0.85;;
5752;SDS011;2901;42.140;24.760;2024-03-29T05:01:46;1.90;;;1.20;;
5752;SDS011;2901;42.140;24.760;2024-03-29T05:04:19;2.28;;;1.27;;
5752;SDS011;2901;42.140;24.760;2024-03-29T05:06:50;4.07;;;1.13;;
5752;SDS011;2901;42.140;24.760;2024-03-29T05:09:19;4.07;;;1.65;;
5752;SDS011;2901;42.140;24.760;2024-03-29T05:11:45;3.03;;;1.80;;
5752;SDS011;2901;42.140;24.760;2024-03-29T05:14:12;6.25;;;1.70;;
5752;SDS011;2901;42.140;24.760;2024-03-29T05:16:44;6.30;;;1.33;;
5752;SDS011;2901;42.140;24.760;2024-03-29T05:19:11;4.13;;;1.38;;
5752;SDS011;2901;42.140;24.760;2024-03-29T05:21:37;4.60;;;1.23;;
5752;SDS011;2901;42.140;24.760;2024-03-29T05:24:02;2.03;;;1.42;;
5752;SDS011;2901;42.140;24.760;2024-03-29T05:26:28;2.72;;;1.30;;
5752;SDS011;2901;42.140;24.760;2024-03-29T05:28:53;4.75;;;1.17;;
5752;SDS011;2901;42.140;24.760;2024-03-29T05:31:22;4.40;;;1.27;;
5752;SDS011;2901;42.140;24.760;2024-03-29T05:33:47;3.65;;;1.50;;
5752;SDS011;2901;42.140;24.760;2024-03-29T05:36:13;4.93;;;1.55;;
5752;SDS011;2901;42.140;24.760;2024-03-29T05:38:39;2.15;;;1.17;;
5752;SDS011;2901;42.140;24.760;2024-03-29T05:41:04;3.60;;;1.05;;
5752;SDS011;2901;42.140;24.760;2024-03-29T05:43:30;5.32;;;1.30;;
5752;SDS011;2901;42.140;24.760;2024-03-29T05:45:56;1.15;;;0.90;;
5752;SDS011;2901;42.140;24.760;2024-03-29T05:48:21;1.63;;;1.05;;
5752;SDS011;2901;42.140;24.760;2024-03-29T05:50:47;1.85;;;1.23;;
5752;SDS011;2901;42.140;24.760;2024-03-29T05:53:12;1.45;;;1.00;;
5752;SDS011;2901;42.140;24.760;2024-03-29T05:55:38;3.38;;;1.45;;
5752;SDS011;2901;42.140;24.760;2024-03-29T05:58:03;1.83;;;1.13;;
5752;SDS011;2901;42.140;24.760;2024-03-29T06:00:31;1.90;;;1.50;;
5752;SDS011;2901;42.140;24.760;2024-03-29T06:02:59;3.30;;;1.40;;
5752;SDS011;2901;42.140;24.760;2024-03-29T06:05:27;4.68;;;1.08;;
5752;SDS011;2901;42.140;24.760;2024-03-29T06:07:52;5.82;;;2.13;;
5752;SDS011;2901;42.140;24.760;2024-03-29T06:10:18;7.80;;;1.63;;
5752;SDS011;2901;42.140;24.760;2024-03-29T06:12:43;2.70;;;1.38;;
5752;SDS011;2901;42.140;24.760;2024-03-29T06:15:08;9.60;;;1.77;;
5752;SDS011;2901;42.140;24.760;2024-03-29T06:17:52;3.95;;;1.45;;
5752;SDS011;2901;42.140;24.760;2024-03-29T06:20:18;4.55;;;1.40;;
5752;SDS011;2901;42.140;24.760;2024-03-29T06:22:44;4.43;;;1.73;;
5752;SDS011;2901;42.140;24.760;2024-03-29T06:25:09;9.43;;;1.30;;
5752;SDS011;2901;42.140;24.760;2024-03-29T06:27:35;3.00;;;1.05;;
5752;SDS011;2901;42.140;24.760;2024-03-29T06:30:02;6.65;;;1.40;;
5752;SDS011;2901;42.140;24.760;2024-03-29T06:32:30;1.88;;;1.05;;
5752;SDS011;2901;42.140;24.760;2024-03-29T06:34:55;3.40;;;0.80;;
5752;SDS011;2901;42.140;24.760;2024-03-29T06:37:21;6.53;;;1.73;;
5752;SDS011;2901;42.140;24.760;2024-03-29T06:39:47;8.75;;;1.30;;
5752;SDS011;2901;42.140;24.760;2024-03-29T06:42:13;2.28;;;1.08;;
5752;SDS011;2901;42.140;24.760;2024-03-29T06:44:39;4.47;;;1.30;;
5752;SDS011;2901;42.140;24.760;2024-03-29T06:47:04;3.00;;;0.90;;
5752;SDS011;2901;42.140;24.760;2024-03-29T06:49:30;2.83;;;0.85;;
5752;SDS011;2901;42.140;24.760;2024-03-29T06:51:57;3.67;;;1.20;;
5752;SDS011;2901;42.140;24.760;2024-03-29T06:54:24;5.05;;;1.33;;
5752;SDS011;2901;42.140;24.760;2024-03-29T06:56:52;6.43;;;0.88;;
5752;SDS011;2901;42.140;24.760;2024-03-29T06:59:18;4.07;;;1.50;;
5752;SDS011;2901;42.140;24.760;2024-03-29T07:01:44;4.82;;;1.40;;
5752;SDS011;2901;42.140;24.760;2024-03-29T07:04:09;18.73;;;1.33;;
5752;SDS011;2901;42.140;24.760;2024-03-29T07:06:34;2.33;;;0.80;;
5752;SDS011;2901;42.140;24.760;2024-03-29T07:09:02;1.92;;;1.20;;
5752;SDS011;2901;42.140;24.760;2024-03-29T07:11:28;2.70;;;1.25;;
5752;SDS011;2901;42.140;24.760;2024-03-29T07:13:54;3.42;;;1.10;;
5752;SDS011;2901;42.140;24.760;2024-03-29T07:16:19;7.05;;;1.45;;
5752;SDS011;2901;42.140;24.760;2024-03-29T07:18:44;2.22;;;0.85;;
5752;SDS011;2901;42.140;24.760;2024-03-29T07:21:10;2.90;;;0.82;;
5752;SDS011;2901;42.140;24.760;2024-03-29T07:23:35;4.13;;;1.02;;
5752;SDS011;2901;42.140;24.760;2024-03-29T07:26:04;7.55;;;1.00;;
5752;SDS011;2901;42.140;24.760;2024-03-29T07:28:30;6.00;;;0.98;;
5752;SDS011;2901;42.140;24.760;2024-03-29T07:30:56;2.67;;;1.30;;
5752;SDS011;2901;42.140;24.760;2024-03-29T07:33:23;1.60;;;1.02;;
5752;SDS011;2901;42.140;24.760;2024-03-29T07:35:55;1.92;;;1.10;;
5752;SDS011;2901;42.140;24.760;2024-03-29T07:38:23;3.28;;;1.10;;
5752;SDS011;2901;42.140;24.760;2024-03-29T07:40:50;2.35;;;0.70;;
5752;SDS011;2901;42.140;24.760;2024-03-29T07:43:16;0.60;;;0.52;;
5752;SDS011;2901;42.140;24.760;2024-03-29T07:45:43;3.38;;;0.70;;
5752;SDS011;2901;42.140;24.760;2024-03-29T07:48:13;1.40;;;0.77;;
5752;SDS011;2901;42.140;24.760;2024-03-29T07:50:40;1.80;;;0.90;;
5752;SDS011;2901;42.140;24.760;2024-03-29T07:53:05;4.10;;;1.10;;
5752;SDS011;2901;42.140;24.760;2024-03-29T07:55:31;2.05;;;0.80;;
5752;SDS011;2901;42.140;24.760;2024-03-29T07:57:56;2.67;;;0.75;;
5752;SDS011;2901;42.140;24.760;2024-03-29T08:00:22;3.88;;;1.00;;
5752;SDS011;2901;42.140;24.760;2024-03-29T08:02:47;2.92;;;0.95;;
5752;SDS011;2901;42.140;24.760;2024-03-29T08:05:13;1.20;;;0.63;;
5752;SDS011;2901;42.140;24.760;2024-03-29T08:07:38;2.13;;;0.82;;
5752;SDS011;2901;42.140;24.760;2024-03-29T08:10:04;4.03;;;0.88;;
5752;SDS011;2901;42.140;24.760;2024-03-29T08:12:31;2.15;;;1.40;;
5752;SDS011;2901;42.140;24.760;2024-03-29T08:14:56;3.95;;;0.65;;
5752;SDS011;2901;42.140;24.760;2024-03-29T08:17:22;2.55;;;0.82;;
5752;SDS011;2901;42.140;24.760;2024-03-29T08:19:47;3.20;;;0.73;;
5752;SDS011;2901;42.140;24.760;2024-03-29T08:22:13;1.92;;;1.35;;
5752;SDS011;2901;42.140;24.760;2024-03-29T08:24:38;2.50;;;0.70;;
5752;SDS011;2901;42.140;24.760;2024-03-29T08:27:04;1.08;;;0.80;;
5752;SDS011;2901;42.140;24.760;2024-03-29T08:29:30;0.82;;;0.73;;
5752;SDS011;2901;42.140;24.760;2024-03-29T08:31:55;3.47;;;1.33;;
5752;SDS011;2901;42.140;24.760;2024-03-29T08:34:22;8.13;;;0.98;;
5752;SDS011;2901;42.140;24.760;2024-03-29T08:36:47;2.58;;;0.90;;
5752;SDS011;2901;42.140;24.760;2024-03-29T08:39:13;1.00;;;0.50;;
5752;SDS011;2901;42.140;24.760;2024-03-29T08:41:38;3.20;;;0.80;;
5752;SDS011;2901;42.140;24.760;2024-03-29T08:44:04;4.05;;;1.10;;
5752;SDS011;2901;42.140;24.760;2024-03-29T08:46:30;2.80;;;0.77;;
5752;SDS011;2901;42.140;24.760;2024-03-29T08:48:56;1.63;;;0.63;;
5752;SDS011;2901;42.140;24.760;2024-03-29T08:51:21;1.58;;;0.73;;
5752;SDS011;2901;42.140;24.760;2024-03-29T08:53:46;2.15;;;0.82;;
5752;SDS011;2901;42.140;24.760;2024-03-29T08:56:12;1.15;;;0.80;;
5752;SDS011;2901;42.140;24.760;2024-03-29T08:58:38;2.63;;;0.63;;
5752;SDS011;2901;42.140;24.760;2024-03-29T09:01:04;3.67;;;1.15;;
5752;SDS011;2901;42.140;24.760;2024-03-29T09:03:30;5.15;;;0.75;;
5752;SDS011;2901;42.140;24.760;2024-03-29T09:05:56;3.60;;;0.80;;
5752;SDS011;2901;42.140;24.760;2024-03-29T09:08:21;2.10;;;0.60;;
5752;SDS011;2901;42.140;24.760;2024-03-29T09:10:46;0.80;;;0.80;;
5752;SDS011;2901;42.140;24.760;2024-03-29T09:13:12;1.42;;;1.20;;
5752;SDS011;2901;42.140;24.760;2024-03-29T09:15:38;0.77;;;0.65;;
5752;SDS011;2901;42.140;24.760;2024-03-29T09:18:04;1.05;;;0.73;;
5752;SDS011;2901;42.140;24.760;2024-03-29T09:20:42;1.02;;;0.63;;
5752;SDS011;2901;42.140;24.760;2024-03-29T09:23:11;4.10;;;0.60;;
5752;SDS011;2901;42.140;24.760;2024-03-29T09:25:40;5.78;;;0.73;;
5752;SDS011;2901;42.140;24.760;2024-03-29T09:28:06;0.90;;;0.70;;
5752;SDS011;2901;42.140;24.760;2024-03-29T09:30:31;3.75;;;1.13;;
5752;SDS011;2901;42.140;24.760;2024-03-29T09:32:57;5.53;;;0.70;;
5752;SDS011;2901;42.140;24.760;2024-03-29T09:35:22;1.00;;;0.68;;
5752;SDS011;2901;42.140;24.760;2024-03-29T09:37:48;3.35;;;0.75;;
5752;SDS011;2901;42.140;24.760;2024-03-29T09:40:13;2.53;;;0.80;;
5752;SDS011;2901;42.140;24.760;2024-03-29T09:42:39;0.70;;;0.50;;
5752;SDS011;2901;42.140;24.760;2024-03-29T09:45:05;5.93;;;1.25;;
5752;SDS011;2901;42.140;24.760;2024-03-29T09:47:32;3.50;;;0.95;;
5752;SDS011;2901;42.140;24.760;2024-03-29T09:49:59;0.70;;;0.70;;
5752;SDS011;2901;42.140;24.760;2024-03-29T09:52:31;3.70;;;0.77;;
5752;SDS011;2901;42.140;24.760;2024-03-29T09:54:57;1.45;;;0.80;;
5752;SDS011;2901;42.140;24.760;2024-03-29T09:57:23;1.17;;;0.70;;
5752;SDS011;2901;42.140;24.760;2024-03-29T09:59:49;1.58;;;1.00;;
5752;SDS011;2901;42.140;24.760;2024-03-29T10:02:15;1.42;;;0.82;;
5752;SDS011;2901;42.140;24.760;2024-03-29T10:04:42;1.58;;;0.80;;
5752;SDS011;2901;42.140;24.760;2024-03-29T10:07:09;4.72;;;0.90;;
5752;SDS011;2901;42.140;24.760;2024-03-29T10:09:37;0.93;;;0.90;;
5752;SDS011;2901;42.140;24.760;2024-03-29T10:12:04;2.75;;;0.70;;
5752;SDS011;2901;42.140;24.760;2024-03-29T10:14:30;5.57;;;0.95;;
5752;SDS011;2901;42.140;24.760;2024-03-29T10:16:57;2.00;;;0.60;;
5752;SDS011;2901;42.140;24.760;2024-03-29T10:19:23;1.80;;;0.70;;
5752;SDS011;2901;42.140;24.760;2024-03-29T10:21:48;1.60;;;0.68;;
5752;SDS011;2901;42.140;24.760;2024-03-29T10:24:14;0.75;;;0.55;;
5752;SDS011;2901;42.140;24.760;2024-03-29T10:26:42;0.63;;;0.50;;
5752;SDS011;2901;42.140;24.760;2024-03-29T10:29:08;1.80;;;1.00;;
5752;SDS011;2901;42.140;24.760;2024-03-29T10:31:34;1.50;;;0.70;;
5752;SDS011;2901;42.140;24.760;2024-03-29T10:34:04;3.15;;;0.80;;
5752;SDS011;2901;42.140;24.760;2024-03-29T10:36:33;0.82;;;0.60;;
5752;SDS011;2901;42.140;24.760;2024-03-29T10:39:04;1.98;;;0.65;;
5752;SDS011;2901;42.140;24.760;2024-03-29T10:41:39;1.00;;;0.60;;
5752;SDS011;2901;42.140;24.760;2024-03-29T10:44:05;3.72;;;0.82;;
5752;SDS011;2901;42.140;24.760;2024-03-29T10:46:39;1.23;;;0.50;;
5752;SDS011;2901;42.140;24.760;2024-03-29T10:49:07;4.03;;;0.73;;
5752;SDS011;2901;42.140;24.760;2024-03-29T10:51:39;1.10;;;0.75;;
5752;SDS011;2901;42.140;24.760;2024-03-29T10:54:06;3.53;;;0.73;;
5752;SDS011;2901;42.140;24.760;2024-03-29T10:56:34;3.38;;;0.80;;
5752;SDS011;2901;42.140;24.760;2024-03-29T10:59:01;1.80;;;0.70;;
5752;SDS011;2901;42.140;24.760;2024-03-29T11:01:52;1.42;;;0.82;;
5752;SDS011;2901;42.140;24.760;2024-03-29T11:04:22;2.88;;;0.60;;
5752;SDS011;2901;42.140;24.760;2024-03-29T11:06:51;4.35;;;0.98;;
5752;SDS011;2901;42.140;24.760;2024-03-29T11:09:19;0.65;;;0.65;;
5752;SDS011;2901;42.140;24.760;2024-03-29T11:11:46;1.45;;;0.93;;
5752;SDS011;2901;42.140;24.760;2024-03-29T11:14:16;1.45;;;0.60;;
5752;SDS011;2901;42.140;24.760;2024-03-29T11:16:45;0.63;;;0.63;;
5752;SDS011;2901;42.140;24.760;2024-03-29T11:19:13;3.83;;;0.73;;
5752;SDS011;2901;42.140;24.760;2024-03-29T11:21:40;1.52;;;0.82;;
5752;SDS011;2901;42.140;24.760;2024-03-29T11:24:08;1.02;;;0.60;;
5752;SDS011;2901;42.140;24.760;2024-03-29T11:26:36;0.73;;;0.70;;
5752;SDS011;2901;42.140;24.760;2024-03-29T11:29:02;0.80;;;0.70;;
5752;SDS011;2901;42.140;24.760;2024-03-29T11:31:28;4.10;;;0.95;;
5752;SDS011;2901;42.140;24.760;2024-03-29T11:33:57;3.63;;;0.63;;
5752;SDS011;2901;42.140;24.760;2024-03-29T11:36:23;5.82;;;0.63;;
5752;SDS011;2901;42.140;24.760;2024-03-29T11:38:51;1.33;;;0.98;;
5752;SDS011;2901;42.140;24.760;2024-03-29T11:41:21;1.38;;;0.68;;
5752;SDS011;2901;42.140;24.760;2024-03-29T11:43:52;1.23;;;0.80;;
5752;SDS011;2901;42.140;24.760;2024-03-29T11:46:21;6.50;;;0.80;;
5752;SDS011;2901;42.140;24.760;2024-03-29T11:48:47;3.35;;;1.10;;
5752;SDS011;2901;42.140;24.760;2024-03-29T11:51:20;1.25;;;1.10;;
5752;SDS011;2901;42.140;24.760;2024-03-29T11:53:49;5.93;;;1.42;;
5752;SDS011;2901;42.140;24.760;2024-03-29T11:56:17;3.90;;;0.88;;
5752;SDS011;2901;42.140;24.760;2024-03-29T11:58:43;2.28;;;0.70;;
5752;SDS011;2901;42.140;24.760;2024-03-29T12:01:09;0.65;;;0.50;;
5752;SDS011;2901;42.140;24.760;2024-03-29T12:03:37;3.55;;;0.63;;
5752;SDS011;2901;42.140;24.760;2024-03-29T12:06:04;3.75;;;0.98;;
5752;SDS011;2901;42.140;24.760;2024-03-29T12:08:31;4.53;;;1.58;;
5752;SDS011;2901;42.140;24.760;2024-03-29T12:11:01;0.88;;;0.88;;
5752;SDS011;2901;42.140;24.760;2024-03-29T12:13:28;1.10;;;0.70;;
5752;SDS011;2901;42.140;24.760;2024-03-29T12:15:54;1.15;;;0.50;;
5752;SDS011;2901;42.140;24.760;2024-03-29T12:18:21;0.63;;;0.55;;
5752;SDS011;2901;42.140;24.760;2024-03-29T12:20:48;1.27;;;1.00;;
5752;SDS011;2901;42.140;24.760;2024-03-29T12:23:15;10.70;;;9.65;;
5752;SDS011;2901;42.140;24.760;2024-03-29T12:25:45;3.83;;;1.17;;
5752;SDS011;2901;42.140;24.760;2024-03-29T12:28:12;0.75;;;0.60;;
5752;SDS011;2901;42.140;24.760;2024-03-29T12:30:48;1.27;;;0.75;;
5752;SDS011;2901;42.140;24.760;2024-03-29T12:33:15;1.13;;;0.90;;
5752;SDS011;2901;42.140;24.760;2024-03-29T12:35:42;5.35;;;0.90;;
5752;SDS011;2901;42.140;24.760;2024-03-29T12:38:13;2.08;;;1.02;;
5752;SDS011;2901;42.140;24.760;2024-03-29T12:40:40;1.83;;;0.50;;
5752;SDS011;2901;42.140;24.760;2024-03-29T12:43:08;1.83;;;0.85;;
5752;SDS011;2901;42.140;24.760;2024-03-29T12:45:35;5.68;;;1.15;;
5752;SDS011;2901;42.140;24.760;2024-03-29T12:48:09;2.45;;;0.90;;
5752;SDS011;2901;42.140;24.760;2024-03-29T12:50:39;1.77;;;0.95;;
5752;SDS011;2901;42.140;24.760;2024-03-29T12:53:09;1.60;;;1.05;;
5752;SDS011;2901;42.140;24.760;2024-03-29T12:55:36;3.05;;;1.38;;
5752;SDS011;2901;42.140;24.760;2024-03-29T12:58:04;1.70;;;0.75;;
5752;SDS011;2901;42.140;24.760;2024-03-29T13:00:33;2.63;;;0.70;;
5752;SDS011;2901;42.140;24.760;2024-03-29T13:02:59;0.98;;;0.85;;
5752;SDS011;2901;42.140;24.760;2024-03-29T13:05:25;2.75;;;1.15;;
5752;SDS011;2901;42.140;24.760;2024-03-29T13:07:52;2.47;;;1.63;;
5752;SDS011;2901;42.140;24.760;2024-03-29T13:10:18;2.92;;;1.08;;
5752;SDS011;2901;42.140;24.760;2024-03-29T13:12:46;0.70;;;0.65;;
5752;SDS011;2901;42.140;24.760;2024-03-29T13:15:18;0.90;;;0.80;;
5752;SDS011;2901;42.140;24.760;2024-03-29T13:17:45;0.98;;;0.80;;
5752;SDS011;2901;42.140;24.760;2024-03-29T13:20:13;1.90;;;1.25;;
5752;SDS011;2901;42.140;24.760;2024-03-29T13:22:40;2.50;;;0.60;;
5752;SDS011;2901;42.140;24.760;2024-03-29T13:25:07;2.17;;;0.90;;
5752;SDS011;2901;42.140;24.760;2024-03-29T13:27:33;1.95;;;1.00;;
5752;SDS011;2901;42.140;24.760;2024-03-29T13:29:58;1.48;;;0.70;;
5752;SDS011;2901;42.140;24.760;2024-03-29T13:32:23;2.35;;;1.17;;
5752;SDS011;2901;42.140;24.760;2024-03-29T13:34:49;1.98;;;1.15;;
5752;SDS011;2901;42.140;24.760;2024-03-29T13:37:14;1.85;;;0.80;;
5752;SDS011;2901;42.140;24.760;2024-03-29T13:39:40;1.42;;;0.85;;
5752;SDS011;2901;42.140;24.760;2024-03-29T13:42:05;1.20;;;0.90;;
5752;SDS011;2901;42.140;24.760;2024-03-29T13:44:30;3.13;;;1.45;;
5752;SDS011;2901;42.140;24.760;2024-03-29T13:46:59;2.22;;;1.15;;
5752;SDS011;2901;42.140;24.760;2024-03-29T13:49:28;3.20;;;1.33;;
5752;SDS011;2901;42.140;24.760;2024-03-29T13:51:55;2.25;;;1.00;;
5752;SDS011;2901;42.140;24.760;2024-03-29T13:54:20;1.73;;;1.10;;
5752;SDS011;2901;42.140;24.760;2024-03-29T13:56:46;1.30;;;0.80;;
5752;SDS011;2901;42.140;24.760;2024-03-29T13:59:11;3.17;;;1.20;;
5752;SDS011;2901;42.140;24.760;2024-03-29T14:01:37;2.42;;;0.98;;
5752;SDS011;2901;42.140;24.760;2024-03-29T14:04:02;1.73;;;1.02;;
5752;SDS011;2901;42.140;24.760;2024-03-29T14:06:27;1.15;;;1.05;;
5752;SDS011;2901;42.140;24.760;2024-03-29T14:08:54;1.45;;;1.15;;
5752;SDS011;2901;42.140;24.760;2024-03-29T14:11:19;4.20;;;1.45;;
5752;SDS011;2901;42.140;24.760;2024-03-29T14:13:44;2.35;;;1.13;;
5752;SDS011;2901;42.140;24.760;2024-03-29T14:16:14;1.23;;;1.10;;
5752;SDS011;2901;42.140;24.760;2024-03-29T14:18:39;1.40;;;1.25;;
5752;SDS011;2901;42.140;24.760;2024-03-29T14:21:05;2.63;;;1.30;;
5752;SDS011;2901;42.140;24.760;2024-03-29T14:23:30;1.30;;;1.13;;
5752;SDS011;2901;42.140;24.760;2024-03-29T14:25:55;2.03;;;1.08;;
5752;SDS011;2901;42.140;24.760;2024-03-29T14:28:22;1.25;;;1.15;;
5752;SDS011;2901;42.140;24.760;2024-03-29T14:30:47;4.50;;;1.15;;
5752;SDS011;2901;42.140;24.760;2024-03-29T14:33:12;2.65;;;1.08;;
5752;SDS011;2901;42.140;24.760;2024-03-29T14:35:38;2.63;;;0.93;;
5752;SDS011;2901;42.140;24.760;2024-03-29T14:38:03;3.28;;;1.25;;
5752;SDS011;2901;42.140;24.760;2024-03-29T14:40:29;3.40;;;0.95;;
5752;SDS011;2901;42.140;24.760;2024-03-29T14:42:55;1.55;;;1.13;;
5752;SDS011;2901;42.140;24.760;2024-03-29T14:45:22;3.40;;;1.50;;
5752;SDS011;2901;42.140;24.760;2024-03-29T14:47:48;3.90;;;1.45;;
5752;SDS011;2901;42.140;24.760;2024-03-29T14:50:14;2.95;;;1.10;;
5752;SDS011;2901;42.140;24.760;2024-03-29T14:52:40;3.60;;;1.20;;
5752;SDS011;2901;42.140;24.760;2024-03-29T14:55:05;2.50;;;0.90;;
5752;SDS011;2901;42.140;24.760;2024-03-29T14:57:31;1.48;;;1.10;;